x

Stannard Rock, Mi (stdm4) Weather Station

4:00am - Fri 28th Nov 2014 All times are CST. -6 hours from GMT.

  • Wind
    18mph, 21mph gusts
  • Air Temp 19°f
  • Sea Pressure 1024.7mb
  • Stannard Rock, Mi
  • Stannard Rock, Mi

More Historic Weather Station data

Upgrade to MSW Pro to gain access to the past 30 days of data for over 8000 Wavebouys and Weather Stations around the globe.

Join Pro

Comparision Forecast

View Surf forecast
   
Fri 11/28 4:00am 18 21 mph 1024.7mb 19f
3:00am 9 11 mph 1025.5mb 19f
2:00am 7 10 mph 1026.4mb 18f
1:00am 13 14 mph 1026.4mb 17f
12:00am 15 17 mph 1026.7mb 17f
Thu 11/27 11:00pm 10 13 mph 1027mb 16f
10:00pm 13 15 mph 1027.2mb 17f
9:00pm 16 17 mph 1027.5mb 16f
8:00pm 18 23 mph 1027.8mb 16f
7:00pm 18 21 mph 1028.1mb 15f
6:00pm 22 25 mph 1028.2mb 15f
5:00pm 21 25 mph 1028.6mb 14f
4:00pm 21 25 mph 1028.6mb 14f
3:00pm 23 29 mph 1028.1mb 14f
2:00pm 24 30 mph 1027.9mb 14f
1:00pm 23 26 mph 1027.8mb 13f
12:00pm 23 26 mph 1028.2mb 14f
11:00am 20 23 mph 1028.1mb 14f
10:00am 24 29 mph 1028mb 14f
9:00am 25 29 mph 1027.8mb 13f
8:00am 24 28 mph 1027.4mb 13f
7:00am 28 32 mph 1026.8mb 14f
6:00am 24 28 mph 1026.6mb 14f
5:00am 26 31 mph 1026.1mb 15f
4:00am 24 28 mph 1025.9mb 16f
3:00am 24 26 mph 1025.9mb 17f
2:00am 26 31 mph 1025.8mb 18f
1:00am 25 29 mph 1025.3mb 19f
12:00am 28 30 mph 1024.7mb 20f
Wed 11/26 11:00pm 28 31 mph 1024.1mb 20f
10:00pm 32 36 mph 1023.1mb 21f
9:00pm 31 34 mph 1022.9mb 22f
8:00pm 32 37 mph 1022.5mb 24f
7:00pm 30 33 mph 1022.4mb 24f
6:00pm 31 32 mph 1022.2mb 25f
5:00pm 30 33 mph 1021.7mb 26f
4:00pm 9 10 mph 1022mb 26f
3:00pm 10 14 mph 1021.8mb 26f
2:00pm 11 13 mph 1021.7mb 26f
1:00pm 13 14 mph 1021.5mb 28f
12:00pm 11 15 mph 1021.4mb 28f
11:00am 10 13 mph 1021.8mb 28f
10:00am 9 13 mph 1022mb 28f
9:00am 7 9 mph 1021.8mb 27f
8:00am 6 8 mph 1021.6mb 27f
7:00am 8 9 mph 1021.4mb 27f
6:00am 7 9 mph 1021.6mb 26f
5:00am 7 9 mph 1021.7mb 26f
4:00am 9 11 mph 1021.7mb 26f
3:00am 9 11 mph 1021.6mb 26f
2:00am 11 14 mph 1021.8mb 26f
1:00am 14 17 mph 1021.2mb 27f
12:00am 9 10 mph 1021.1mb 28f
Tue 11/25 11:00pm 10 14 mph 1020.5mb 27f
10:00pm 11 14 mph 1020.2mb 27f
9:00pm 15 17 mph 1019.6mb 26f
8:00pm 20 22 mph 1019mb 26f
7:00pm 17 22 mph 1018.7mb 25f
6:00pm 21 23 mph 1018.4mb 24f
5:00pm 15 18 mph 1017.9mb 23f
4:00pm 21 26 mph 1017.2mb 24f
3:00pm 20 22 mph 1016.6mb 24f
2:00pm 23 25 mph 1015.5mb 24f
1:00pm 21 26 mph 1014.9mb 24f
12:00pm 21 23 mph 1014.3mb 24f
11:00am 24 29 mph 1013.7mb 24f
10:00am 23 28 mph 1012.8mb 24f
9:00am 23 28 mph 1011.8mb 24f
8:00am 30 33 mph 1011mb 25f
7:00am 28 31 mph 1010mb 25f
6:00am 26 29 mph 1009mb 25f
5:00am 25 28 mph 1007.9mb 25f
4:00am 29 31 mph 1006.7mb 25f
3:00am 32 34 mph 1005.6mb 25f
2:00am 33 36 mph 1004.6mb 25f
1:00am 32 34 mph 1003.5mb 25f
12:00am 33 37 mph 1002.6mb 25f
Mon 11/24 11:00pm 36 38 mph 1001.2mb 26f
10:00pm 36 39 mph 1000mb 26f
9:00pm 37 44 mph 998.4mb 27f
8:00pm 39 41 mph 996.8mb 27f
7:00pm 38 41 mph 995.3mb 27f
6:00pm 37 43 mph 994.2mb 28f
5:00pm 37 43 mph 993mb 28f
4:00pm 37 39 mph 991.5mb 28f
3:00pm 33 37 mph 989.9mb 29f
2:00pm 38 41 mph 988.2mb 29f
1:00pm 39 44 mph 986.9mb 29f
12:00pm 39 43 mph 985.8mb 30f